Terminal Aerodrome Forecast
Issued by NWS

Home | Current Version | Previous Version | Text Only | Print | Product List | Glossary On
Versions: 1 2 3 4 5 6 7 8 9 10 11 12 13 14 15 16 17 18 19
000
FTUS45 KTFX 280500
TAFLWT
TAF
KLWT 280520Z 2806/2906 23018KT P6SM SCT090 BKN200
     FM281500 23018G27KT P6SM SCT090 BKN150
     FM290500 32018KT P6SM VCSH SCT020 BKN040=

USA.gov is the U.S. government's official web portal to all federal, state and local government web resources and services.